Time;durP1;ratioP1;P1;durP2;ratioP2;P2;SDS_P1;SDS_P2;PMS_P1;PMS_P2;Temp;Humidity;BMP_temperature;BMP_pressure;BME280_temperature;BME280_humidity;BME280_pressure;Samples;Min_cycle;Max_cycle;Signal;HPM_P1;HPM_P2
2023/06/14 00:02:11;;;;;;;17.27;6.78;;;13.80;99.90;;;;;;5096264;28;20498;-65
2023/06/14 00:04:39;;;;;;;11.02;6.68;;;13.80;99.90;;;;;;5096387;28;20092;-65
2023/06/14 00:07:08;;;;;;;17.48;7.15;;;13.80;99.90;;;;;;5096504;28;20027;-65
2023/06/14 00:09:34;;;;;;;12.18;6.32;;;13.80;99.90;;;;;;5096264;28;20056;-65
2023/06/14 00:12:00;;;;;;;21.65;8.18;;;13.70;99.90;;;;;;5096203;28;20377;-65
2023/06/14 00:14:26;;;;;;;17.45;6.80;;;13.80;99.90;;;;;;5096420;28;20406;-65
2023/06/14 00:16:58;;;;;;;14.38;7.15;;;13.70;99.90;;;;;;5096752;28;20028;-65
2023/06/14 00:19:25;;;;;;;12.40;6.82;;;13.70;99.90;;;;;;5096059;28;20034;-65
2023/06/14 00:21:52;;;;;;;17.42;8.00;;;13.70;99.90;;;;;;5096276;28;20417;-65
2023/06/14 00:24:19;;;;;;;16.70;7.75;;;13.70;99.90;;;;;;5096034;28;20028;-65
2023/06/14 00:26:45;;;;;;;16.92;7.45;;;13.70;99.90;;;;;;5096113;28;20032;-66
2023/06/14 00:29:11;;;;;;;18.27;7.40;;;13.70;99.90;;;;;;5096041;28;20501;-65
2023/06/14 00:31:37;;;;;;;18.65;7.60;;;13.60;99.90;;;;;;5096173;28;20085;-65
2023/06/14 00:34:03;;;;;;;20.30;7.63;;;13.60;99.90;;;;;;5095800;28;20041;-65
2023/06/14 00:36:29;;;;;;;24.50;7.53;;;13.60;99.90;;;;;;5095966;28;20040;-65
2023/06/14 00:38:55;;;;;;;18.38;6.70;;;13.50;99.90;;;;;;5077969;28;20024;-65
2023/06/14 00:41:21;;;;;;;12.05;7.53;;;13.50;99.90;;;;;;5095665;28;20057;-66
2023/06/14 00:43:48;;;;;;;10.75;6.18;;;13.50;99.90;;;;;;5077793;28;20028;-66
2023/06/14 00:46:14;;;;;;;12.27;6.85;;;13.50;99.90;;;;;;5095944;28;20458;-66
2023/06/14 00:48:41;;;;;;;11.82;6.60;;;13.40;99.90;;;;;;5077449;28;20058;-66
2023/06/14 00:51:07;;;;;;;8.88;6.50;;;13.40;99.90;;;;;;5095548;28;20020;-66
2023/06/14 00:53:35;;;;;;;20.48;7.85;;;13.50;99.90;;;;;;5077483;28;20056;-66
2023/06/14 00:56:01;;;;;;;13.73;7.90;;;13.40;99.90;;;;;;5095550;28;20089;-66
2023/06/14 00:58:28;;;;;;;12.13;7.05;;;13.40;99.90;;;;;;5095686;28;20020;-66
2023/06/14 01:00:54;;;;;;;16.63;7.53;;;13.30;99.90;;;;;;5095767;28;20031;-65
2023/06/14 01:03:22;;;;;;;14.13;7.43;;;13.30;99.90;;;;;;5076273;28;20031;-65
2023/06/14 01:06:02;;;;;;;17.20;7.63;;;13.20;99.90;;;;;;5095461;28;20039;-66
2023/06/14 01:09:05;;;;;;;15.48;7.63;;;13.20;99.90;;;;;;5095273;28;20393;-66
2023/06/14 01:11:37;;;;;;;12.43;7.05;;;13.20;99.90;;;;;;5075092;28;20036;-66
2023/06/14 01:14:05;;;;;;;17.52;7.47;;;13.20;99.90;;;;;;5073488;28;20456;-66
2023/06/14 01:16:32;;;;;;;21.15;6.90;;;13.20;99.90;;;;;;5075002;28;20374;-66
2023/06/14 01:18:58;;;;;;;14.90;7.15;;;13.20;99.90;;;;;;5074984;28;20031;-66
2023/06/14 01:21:25;;;;;;;14.90;7.93;;;13.20;99.90;;;;;;5075297;28;20039;-66
2023/06/14 01:23:55;;;;;;;16.48;8.02;;;13.20;99.90;;;;;;5074819;28;20021;-66
2023/06/14 01:26:22;;;;;;;11.32;8.15;;;13.20;99.90;;;;;;5074626;28;20040;-66
2023/06/14 01:28:52;;;;;;;15.90;8.23;;;13.30;99.90;;;;;;5074799;28;20450;-66
2023/06/14 01:31:24;;;;;;;15.13;9.13;;;13.30;99.90;;;;;;5056380;28;20360;-66
2023/06/14 01:33:51;;;;;;;13.25;8.63;;;13.30;99.90;;;;;;5074721;28;20025;-66
2023/06/14 01:36:19;;;;;;;18.05;8.80;;;13.40;99.90;;;;;;5074356;28;20078;-65
2023/06/14 01:38:50;;;;;;;19.45;9.85;;;13.40;99.90;;;;;;5056570;28;20039;-66
2023/06/14 01:41:18;;;;;;;21.27;9.35;;;13.40;99.90;;;;;;5074408;28;20080;-66
2023/06/14 01:43:46;;;;;;;17.23;8.70;;;13.40;99.90;;;;;;5074650;28;20025;-66
2023/06/14 01:46:13;;;;;;;19.67;8.75;;;13.40;99.90;;;;;;5074343;28;20032;-65
2023/06/14 01:48:39;;;;;;;18.85;8.63;;;13.50;99.90;;;;;;5074430;28;20055;-65
2023/06/14 01:51:05;;;;;;;13.25;7.88;;;13.50;99.90;;;;;;5074041;28;20028;-66
2023/06/14 01:53:31;;;;;;;18.75;7.88;;;13.50;99.90;;;;;;5074415;28;20042;-66
2023/06/14 01:55:58;;;;;;;19.80;7.47;;;13.40;99.90;;;;;;5056475;28;20056;-66
2023/06/14 01:58:25;;;;;;;22.75;8.35;;;13.40;99.90;;;;;;5056137;28;20078;-66
2023/06/14 02:00:55;;;;;;;16.17;8.27;;;13.30;99.90;;;;;;5056417;28;20033;-66
2023/06/14 02:03:21;;;;;;;12.70;7.72;;;13.40;99.90;;;;;;5055978;28;20494;-65
2023/06/14 02:05:47;;;;;;;17.10;7.60;;;13.40;99.90;;;;;;5074027;28;20107;-66
2023/06/14 02:08:13;;;;;;;16.08;8.07;;;13.30;99.90;;;;;;5074208;28;20480;-66
2023/06/14 02:10:39;;;;;;;24.25;9.05;;;13.30;99.90;;;;;;5087800;28;20032;-66
2023/06/14 02:13:05;;;;;;;14.25;8.48;;;13.30;99.90;;;;;;5075526;28;20055;-66
2023/06/14 02:15:34;;;;;;;15.15;8.93;;;13.30;99.90;;;;;;5076409;28;20028;-66
2023/06/14 02:18:02;;;;;;;20.92;9.50;;;13.40;99.90;;;;;;5075967;28;20021;-66
2023/06/14 02:20:29;;;;;;;15.07;9.57;;;13.40;99.90;;;;;;5094339;28;20028;-65
2023/06/14 02:22:56;;;;;;;17.88;9.90;;;13.40;99.90;;;;;;5076128;28;20066;-65
2023/06/14 02:25:22;;;;;;;16.52;10.00;;;13.40;99.90;;;;;;5093971;28;20287;-66
2023/06/14 02:27:48;;;;;;;15.07;9.45;;;13.40;99.90;;;;;;5094002;28;20035;-66
2023/06/14 02:30:15;;;;;;;16.25;8.95;;;13.50;99.90;;;;;;5075881;28;20024;-66
2023/06/14 02:32:42;;;;;;;18.30;9.13;;;13.50;99.90;;;;;;5093975;28;20027;-66
2023/06/14 02:35:08;;;;;;;14.68;9.15;;;13.60;99.90;;;;;;5075597;28;20063;-66
2023/06/14 02:37:35;;;;;;;13.70;9.15;;;13.60;99.90;;;;;;5093906;28;20044;-66
2023/06/14 02:40:01;;;;;;;19.65;9.27;;;13.60;99.90;;;;;;5093998;28;20024;-66
2023/06/14 02:42:27;;;;;;;17.58;9.57;;;13.60;99.90;;;;;;5093987;28;20089;-66
2023/06/14 02:44:52;;;;;;;13.73;8.95;;;13.60;99.90;;;;;;5075892;28;20099;-66
2023/06/14 02:47:20;;;;;;;17.45;9.57;;;13.50;99.90;;;;;;5093730;28;20081;-66
2023/06/14 02:49:46;;;;;;;20.80;10.20;;;13.50;99.90;;;;;;5094222;28;20047;-66
2023/06/14 02:52:15;;;;;;;13.75;8.88;;;13.40;99.90;;;;;;5093773;28;20428;-66
2023/06/14 02:54:41;;;;;;;13.68;9.07;;;13.50;99.90;;;;;;5075781;28;20385;-66
2023/06/14 02:57:08;;;;;;;15.07;8.77;;;13.50;99.90;;;;;;5093618;28;20027;-66
2023/06/14 02:59:35;;;;;;;15.82;10.00;;;13.40;99.90;;;;;;5075710;28;20141;-66
2023/06/14 03:02:03;;;;;;;14.60;8.02;;;13.40;99.90;;;;;;5075289;28;20317;-66
2023/06/14 03:04:37;;;;;;;13.57;8.65;;;13.50;99.90;;;;;;5075644;28;20288;-66
2023/06/14 03:07:10;;;;;;;12.50;8.45;;;13.40;99.90;;;;;;5075472;28;20050;-66
2023/06/14 03:09:39;;;;;;;14.23;9.43;;;13.30;99.90;;;;;;5075341;28;20032;-66
2023/06/14 03:12:07;;;;;;;15.70;9.00;;;13.30;99.90;;;;;;5075188;28;20080;-66
2023/06/14 03:14:35;;;;;;;22.40;8.93;;;13.40;99.90;;;;;;5075483;28;20032;-66
2023/06/14 03:17:04;;;;;;;14.35;9.10;;;13.40;99.90;;;;;;5075425;28;20028;-66
2023/06/14 03:19:31;;;;;;;17.00;9.70;;;13.40;99.90;;;;;;5075525;28;20024;-66
2023/06/14 03:21:58;;;;;;;19.65;10.13;;;13.40;99.90;;;;;;5075530;28;20028;-66
2023/06/14 03:24:28;;;;;;;15.35;9.88;;;13.40;99.90;;;;;;5075328;28;20032;-66
2023/06/14 03:26:56;;;;;;;16.23;9.80;;;13.40;99.90;;;;;;5078671;28;20028;-66
2023/06/14 03:29:23;;;;;;;13.27;10.35;;;13.40;99.90;;;;;;5079021;28;20126;-66
2023/06/14 03:31:58;;;;;;;20.00;10.63;;;13.40;99.90;;;;;;5062200;28;20127;-66
2023/06/14 03:34:26;;;;;;;14.50;9.80;;;13.40;99.90;;;;;;5078922;28;20024;-66
2023/06/14 03:36:52;;;;;;;19.35;10.70;;;13.40;99.90;;;;;;5097033;28;20512;-66
2023/06/14 03:39:18;;;;;;;15.30;10.23;;;13.50;99.90;;;;;;5078662;28;20028;-66
2023/06/14 03:41:45;;;;;;;17.52;10.02;;;13.50;99.90;;;;;;5078977;28;20465;-66
2023/06/14 03:44:16;;;;;;;14.68;9.75;;;13.60;99.90;;;;;;5078853;28;20036;-66
2023/06/14 03:46:42;;;;;;;18.15;9.82;;;13.60;99.90;;;;;;5078840;28;20067;-66
2023/06/14 03:49:08;;;;;;;17.27;9.23;;;13.60;99.90;;;;;;5078598;28;20040;-66
2023/06/14 03:51:35;;;;;;;13.38;9.88;;;13.60;99.90;;;;;;5096888;28;20028;-66
2023/06/14 03:54:01;;;;;;;20.92;10.20;;;13.60;99.90;;;;;;5078571;28;20020;-66
2023/06/14 03:56:27;;;;;;;15.20;8.93;;;13.70;99.90;;;;;;5078597;28;20024;-66
2023/06/14 03:58:53;;;;;;;22.08;10.43;;;13.90;99.90;;;;;;5078756;28;20489;-66
2023/06/14 04:01:29;;;;;;;19.95;10.25;;;14.00;99.90;;;;;;5078329;28;20039;-66
2023/06/14 04:03:58;;;;;;;17.60;10.07;;;14.10;99.90;;;;;;5078504;28;20028;-66
2023/06/14 04:06:31;;;;;;;20.80;9.70;;;14.10;99.90;;;;;;5078265;28;20031;-66
2023/06/14 04:09:03;;;;;;;15.30;9.90;;;14.10;99.90;;;;;;5078454;28;20111;-66
2023/06/14 04:11:29;;;;;;;20.02;9.70;;;14.10;99.90;;;;;;5074953;28;20386;-66
2023/06/14 04:13:56;;;;;;;18.65;9.20;;;14.30;99.90;;;;;;5076152;28;20383;-66
2023/06/14 04:16:23;;;;;;;21.45;13.07;;;14.40;99.90;;;;;;5074824;28;20028;-66
2023/06/14 04:18:51;;;;;;;24.65;11.45;;;14.50;99.90;;;;;;5076113;28;20028;-66
2023/06/14 04:21:18;;;;;;;17.30;10.18;;;14.50;99.90;;;;;;5057984;28;20028;-66
2023/06/14 04:23:45;;;;;;;26.20;10.93;;;14.60;99.90;;;;;;5074928;28;20032;-66
2023/06/14 04:26:14;;;;;;;18.00;10.60;;;14.70;99.90;;;;;;5057822;28;20051;-66
2023/06/14 04:28:42;;;;;;;23.73;10.70;;;14.70;99.90;;;;;;5057833;28;20509;-66
2023/06/14 04:31:11;;;;;;;20.35;9.88;;;14.70;99.90;;;;;;5057985;28;20028;-66
2023/06/14 04:33:46;;;;;;;21.30;10.30;;;14.90;99.90;;;;;;5074295;28;20037;-66
2023/06/14 04:36:17;;;;;;;19.40;9.80;;;14.90;99.90;;;;;;5057508;28;20024;-66
2023/06/14 04:38:44;;;;;;;20.35;10.60;;;14.90;99.90;;;;;;5057757;28;20032;-66
2023/06/14 04:41:12;;;;;;;25.23;11.73;;;15.00;99.90;;;;;;5057583;28;20028;-66
2023/06/14 04:43:40;;;;;;;30.33;12.10;;;15.00;99.90;;;;;;5074269;28;20082;-66
2023/06/14 04:46:10;;;;;;;24.98;11.18;;;15.00;99.90;;;;;;5057297;28;20032;-66
2023/06/14 04:48:40;;;;;;;24.80;11.90;;;15.10;99.90;;;;;;5057519;28;20090;-66
2023/06/14 04:51:08;;;;;;;22.48;11.32;;;15.10;99.90;;;;;;5057282;28;20032;-66
2023/06/14 04:53:34;;;;;;;20.25;10.68;;;15.20;99.90;;;;;;5075378;28;20052;-66
2023/06/14 04:56:00;;;;;;;23.80;10.27;;;15.30;99.90;;;;;;5040755;28;20067;-66
2023/06/14 04:58:30;;;;;;;21.27;10.30;;;15.40;99.90;;;;;;5057369;28;20389;-66
2023/06/14 05:00:56;;;;;;;24.92;11.02;;;15.40;99.90;;;;;;5075289;28;20060;-66
2023/06/14 05:03:23;;;;;;;16.13;10.07;;;15.50;99.90;;;;;;5073821;28;20047;-66
2023/06/14 05:05:50;;;;;;;25.52;10.50;;;15.60;99.90;;;;;;5075331;28;20528;-66
2023/06/14 05:08:17;;;;;;;29.05;11.68;;;15.70;99.90;;;;;;5073478;28;20500;-66
2023/06/14 05:10:43;;;;;;;44.72;11.82;;;15.80;99.90;;;;;;5076894;28;20038;-66
2023/06/14 05:13:10;;;;;;;49.20;12.07;;;15.70;99.90;;;;;;5095084;28;20031;-66
2023/06/14 05:15:36;;;;;;;37.88;10.45;;;15.80;99.90;;;;;;5076833;28;20397;-66
2023/06/14 05:18:02;;;;;;;39.88;11.80;;;15.90;99.90;;;;;;5094961;28;20024;-66
2023/06/14 05:20:29;;;;;;;24.30;11.32;;;15.90;99.90;;;;;;5095220;28;20034;-66
2023/06/14 05:22:56;;;;;;;30.10;10.55;;;15.90;99.90;;;;;;5095199;28;20071;-66
2023/06/14 05:25:22;;;;;;;36.58;11.48;;;16.00;99.90;;;;;;5094855;28;20028;-66
2023/06/14 05:27:49;;;;;;;37.03;11.02;;;16.10;99.90;;;;;;5091751;28;20038;-66
2023/06/14 05:30:15;;;;;;;32.20;11.98;;;16.10;99.90;;;;;;5092850;28;20462;-66
2023/06/14 05:32:44;;;;;;;29.33;11.48;;;16.20;99.90;;;;;;5093874;28;20062;-66
2023/06/14 05:35:11;;;;;;;39.22;11.32;;;16.20;99.90;;;;;;5094892;28;20103;-66
2023/06/14 05:37:39;;;;;;;39.03;10.93;;;16.10;99.90;;;;;;5094469;28;20043;-66
2023/06/14 05:40:06;;;;;;;33.20;11.30;;;16.10;99.90;;;;;;5074535;28;20482;-66
2023/06/14 05:42:37;;;;;;;37.88;12.35;;;16.20;99.90;;;;;;5074180;28;20052;-66
2023/06/14 05:45:03;;;;;;;35.15;12.27;;;16.20;99.90;;;;;;5074427;28;20363;-66
2023/06/14 05:47:29;;;;;;;53.25;15.90;;;16.30;99.90;;;;;;5074292;28;20115;-66
2023/06/14 05:49:55;;;;;;;40.45;14.48;;;16.30;99.90;;;;;;5076210;28;20056;-66
2023/06/14 05:52:21;;;;;;;29.38;12.60;;;16.40;99.90;;;;;;5094515;28;20024;-66
2023/06/14 05:54:47;;;;;;;25.55;10.57;;;16.40;99.90;;;;;;5100961;28;20080;-66
2023/06/14 05:57:13;;;;;;;33.45;12.25;;;16.50;99.90;;;;;;5106136;28;20481;-66
2023/06/14 05:59:40;;;;;;;30.50;11.60;;;16.50;99.90;;;;;;5094104;28;20055;-66
2023/06/14 06:02:05;;;;;;;37.20;13.15;;;16.60;99.90;;;;;;5093364;28;20464;-66
2023/06/14 06:04:31;;;;;;;34.60;12.35;;;16.60;99.90;;;;;;5092815;28;20483;-66
2023/06/14 06:06:57;;;;;;;30.30;12.57;;;16.70;99.90;;;;;;5094252;28;20024;-66
2023/06/14 06:09:29;;;;;;;29.08;11.68;;;16.80;99.90;;;;;;5094209;28;20136;-66
2023/06/14 06:11:55;;;;;;;32.15;12.13;;;16.90;99.90;;;;;;5094218;28;20482;-66
2023/06/14 06:14:21;;;;;;;25.63;12.23;;;17.00;99.90;;;;;;5094266;28;20099;-66
2023/06/14 06:16:47;;;;;;;25.40;11.68;;;17.10;99.90;;;;;;5094343;28;20072;-66
2023/06/14 06:19:13;;;;;;;24.95;11.73;;;17.20;99.90;;;;;;5093493;28;20024;-66
2023/06/14 06:21:39;;;;;;;18.20;10.52;;;17.30;99.90;;;;;;5102734;28;20028;-66
2023/06/14 06:24:06;;;;;;;26.48;12.35;;;17.30;99.90;;;;;;5093362;28;20354;-66
2023/06/14 06:26:32;;;;;;;20.55;11.32;;;17.20;99.90;;;;;;5093137;28;20024;-66
2023/06/14 06:28:59;;;;;;;22.17;11.40;;;17.20;99.90;;;;;;5097939;28;20024;-66
2023/06/14 06:31:25;;;;;;;26.13;12.57;;;17.30;99.90;;;;;;5094245;28;20024;-66
2023/06/14 06:33:51;;;;;;;28.45;11.82;;;17.30;99.90;;;;;;5093893;28;20036;-66
2023/06/14 06:36:17;;;;;;;19.80;10.73;;;17.40;99.90;;;;;;5093885;28;20042;-66
2023/06/14 06:38:43;;;;;;;21.85;10.35;;;17.50;99.90;;;;;;5094084;28;20466;-66
2023/06/14 06:41:09;;;;;;;18.73;10.25;;;17.70;99.90;;;;;;5094074;28;20020;-66
2023/06/14 06:43:35;;;;;;;28.30;11.20;;;17.80;99.90;;;;;;5093985;28;20036;-66
2023/06/14 06:46:02;;;;;;;33.15;11.63;;;17.90;99.90;;;;;;5075362;28;20122;-66
2023/06/14 06:48:30;;;;;;;25.50;11.40;;;18.00;99.90;;;;;;5093505;28;20035;-66
2023/06/14 06:50:57;;;;;;;18.63;9.77;;;18.10;99.90;;;;;;5071807;28;20040;-66
2023/06/14 06:53:23;;;;;;;23.45;10.57;;;18.30;99.90;;;;;;5090704;28;20024;-66
2023/06/14 06:55:49;;;;;;;32.78;11.50;;;18.30;99.90;;;;;;5107419;28;20135;-66
2023/06/14 06:58:15;;;;;;;27.45;12.18;;;18.30;99.90;;;;;;5081802;28;20107;-66
2023/06/14 07:00:41;;;;;;;20.88;11.68;;;18.30;99.90;;;;;;5094057;28;20024;-66
2023/06/14 07:03:07;;;;;;;23.63;10.70;;;18.30;99.90;;;;;;5092711;28;20043;-66
2023/06/14 07:05:33;;;;;;;21.10;10.75;;;18.40;99.90;;;;;;5097319;28;20116;-66
2023/06/14 07:08:00;;;;;;;19.35;9.68;;;18.50;99.90;;;;;;5096622;28;20020;-66
2023/06/14 07:10:26;;;;;;;18.55;9.82;;;18.50;99.90;;;;;;5097700;28;20028;-66
2023/06/14 07:12:52;;;;;;;19.58;9.68;;;18.50;99.90;;;;;;5097084;28;20031;-66
2023/06/14 07:15:18;;;;;;;17.35;9.10;;;18.50;99.90;;;;;;5097656;28;20016;-66
2023/06/14 07:17:44;;;;;;;17.48;9.25;;;18.50;99.90;;;;;;5097808;28;20023;-66
2023/06/14 07:20:13;;;;;;;19.02;10.23;;;18.50;99.90;;;;;;5097974;28;20038;-66
2023/06/14 07:22:41;;;;;;;17.02;9.07;;;18.50;99.90;;;;;;5096937;28;20043;-66
2023/06/14 07:25:08;;;;;;;20.77;10.13;;;18.40;99.90;;;;;;5097521;28;20032;-66
2023/06/14 07:27:34;;;;;;;14.48;9.27;;;18.50;99.90;;;;;;5097246;28;20040;-66
2023/06/14 07:30:06;;;;;;;21.30;10.30;;;18.40;99.90;;;;;;5097484;28;20487;-66
2023/06/14 07:32:33;;;;;;;15.05;8.93;;;18.40;99.90;;;;;;5091845;28;20028;-66
2023/06/14 07:35:03;;;;;;;13.18;8.80;;;18.40;99.90;;;;;;5090902;28;20030;-66
2023/06/14 07:37:29;;;;;;;13.23;7.80;;;18.50;99.90;;;;;;5095403;28;20048;-66
2023/06/14 07:39:54;;;;;;;11.60;8.23;;;18.40;99.90;;;;;;5097397;28;20024;-66
2023/06/14 07:42:20;;;;;;;18.15;8.88;;;18.40;99.90;;;;;;5096933;28;20601;-66
2023/06/14 07:44:46;;;;;;;22.48;8.73;;;18.40;99.90;;;;;;5097271;28;20114;-66
2023/06/14 07:47:15;;;;;;;15.80;9.00;;;18.40;99.90;;;;;;5097089;28;20032;-66
2023/06/14 07:49:41;;;;;;;15.95;8.02;;;18.50;99.90;;;;;;5097004;28;20024;-66
2023/06/14 07:52:07;;;;;;;23.58;9.35;;;18.50;99.90;;;;;;5096832;28;20469;-66
2023/06/14 07:54:33;;;;;;;18.63;9.15;;;18.60;99.90;;;;;;5097127;28;20366;-66
2023/06/14 07:57:00;;;;;;;18.35;9.82;;;18.70;99.90;;;;;;5096510;28;20031;-66
2023/06/14 07:59:26;;;;;;;31.33;12.65;;;18.70;99.90;;;;;;5097033;28;20039;-66
2023/06/14 08:01:52;;;;;;;39.88;13.07;;;18.70;99.90;;;;;;5096820;28;20077;-66
2023/06/14 08:04:18;;;;;;;40.58;13.80;;;18.80;99.90;;;;;;5096710;28;20119;-66
2023/06/14 08:06:50;;;;;;;26.30;11.07;;;18.80;99.90;;;;;;5096606;28;20023;-66
2023/06/14 08:09:16;;;;;;;31.80;11.65;;;18.90;99.90;;;;;;5096359;28;20054;-66
2023/06/14 08:11:42;;;;;;;32.63;11.48;;;19.00;99.90;;;;;;5095594;28;20020;-66
2023/06/14 08:14:12;;;;;;;23.77;10.55;;;18.80;99.90;;;;;;5096192;28;20036;-66
2023/06/14 08:16:38;;;;;;;27.48;9.98;;;18.80;99.90;;;;;;5095253;28;20028;-66
2023/06/14 08:19:04;;;;;;;29.52;11.48;;;18.90;99.90;;;;;;5100780;28;20026;-66
2023/06/14 08:21:30;;;;;;;22.10;10.70;;;19.00;99.90;;;;;;5103921;28;20077;-66
2023/06/14 08:23:57;;;;;;;19.77;10.27;;;19.10;99.90;;;;;;5098425;28;20028;-66
2023/06/14 08:26:34;;;;;;;21.83;9.52;;;19.20;99.90;;;;;;5095709;28;20455;-66
2023/06/14 08:29:00;;;;;;;17.15;9.30;;;19.20;99.90;;;;;;5095900;28;20020;-66
2023/06/14 08:31:27;;;;;;;20.75;10.20;;;19.30;99.90;;;;;;5096264;28;20060;-66
2023/06/14 08:33:53;;;;;;;17.52;8.90;;;19.30;99.90;;;;;;5096098;28;20027;-65
2023/06/14 08:36:26;;;;;;;25.05;10.85;;;19.40;99.90;;;;;;5096093;28;20457;-66
2023/06/14 08:38:52;;;;;;;29.17;10.88;;;19.40;99.90;;;;;;5096317;28;20373;-66
2023/06/14 08:41:25;;;;;;;17.05;9.18;;;19.50;99.90;;;;;;5095998;28;20035;-66
2023/06/14 08:43:52;;;;;;;20.77;10.25;;;19.50;99.90;;;;;;5095769;28;20489;-66
2023/06/14 08:46:22;;;;;;;22.08;9.52;;;19.50;99.90;;;;;;5095800;28;20048;-66
2023/06/14 08:48:50;;;;;;;24.90;10.00;;;19.50;99.90;;;;;;5095052;28;20028;-66
2023/06/14 08:51:23;;;;;;;26.38;9.63;;;19.60;99.90;;;;;;5094157;28;20469;-66
2023/06/14 08:53:57;;;;;;;18.15;8.82;;;19.70;99.90;;;;;;5099790;28;20035;-66
2023/06/14 08:56:27;;;;;;;20.15;9.75;;;19.70;99.90;;;;;;5115710;28;20020;-66
2023/06/14 08:58:54;;;;;;;;;;;19.60;99.90;;;;;;5115840;28;20026;-66
2023/06/14 09:01:21;;;;;;;15.02;9.00;;;19.60;99.90;;;;;;5115106;28;19915;-66
2023/06/14 09:03:49;;;;;;;26.88;10.18;;;19.70;99.90;;;;;;5110535;28;20499;-66
2023/06/14 09:06:23;;;;;;;19.75;9.80;;;19.80;99.90;;;;;;5105299;28;20034;-65
2023/06/14 09:08:49;;;;;;;24.92;10.50;;;19.90;99.90;;;;;;5112825;28;20074;-66
2023/06/14 09:11:18;;;;;;;34.00;11.38;;;19.90;99.90;;;;;;5097168;28;20034;-66
2023/06/14 09:13:48;;;;;;;24.90;10.98;;;19.90;99.90;;;;;;5095212;28;20035;-66
2023/06/14 09:16:15;;;;;;;24.98;9.85;;;19.90;99.90;;;;;;5094511;28;20359;-66
2023/06/14 09:18:49;;;;;;;31.67;11.05;;;20.00;99.90;;;;;;5094640;28;20020;-66
2023/06/14 09:21:17;;;;;;;24.85;10.68;;;20.10;99.90;;;;;;5095000;28;20058;-66
2023/06/14 09:23:45;;;;;;;24.67;10.98;;;20.20;99.90;;;;;;5094183;28;20024;-66
2023/06/14 09:26:12;;;;;;;27.77;11.00;;;20.30;99.90;;;;;;5097475;28;20111;-66
2023/06/14 09:28:43;;;;;;;26.48;12.07;;;20.20;99.90;;;;;;5114998;28;20461;-66
2023/06/14 09:31:14;;;;;;;30.70;12.15;;;20.20;99.90;;;;;;5094940;28;20157;-66
2023/06/14 09:33:47;;;;;;;22.35;10.48;;;20.20;99.90;;;;;;5094778;28;20070;-66
2023/06/14 09:36:22;;;;;;;32.60;12.07;;;20.20;99.90;;;;;;5095071;28;20024;-66
2023/06/14 09:38:58;;;;;;;24.40;10.10;;;20.40;99.90;;;;;;5094592;28;20124;-66
2023/06/14 09:41:34;;;;;;;22.80;11.07;;;20.50;99.90;;;;;;5095007;28;20043;-66
2023/06/14 09:44:02;;;;;;;20.83;9.77;;;20.70;99.90;;;;;;5093864;28;20073;-66
2023/06/14 09:46:31;;;;;;;27.77;10.20;;;20.80;99.90;;;;;;5096990;28;20032;-66
2023/06/14 09:48:58;;;;;;;31.67;11.32;;;20.80;99.90;;;;;;5094300;28;20035;-66
2023/06/14 09:51:26;;;;;;;30.60;11.07;;;20.70;99.90;;;;;;5093721;28;20024;-66
2023/06/14 09:53:53;;;;;;;32.65;10.38;;;20.80;99.90;;;;;;5094369;28;20102;-66
2023/06/14 09:56:31;;;;;;;29.00;10.88;;;20.70;99.90;;;;;;5094449;28;20485;-66
2023/06/14 09:58:59;;;;;;;27.27;10.05;;;20.90;99.90;;;;;;5109012;28;20031;-66
2023/06/14 10:01:29;;;;;;;24.48;10.73;;;21.00;99.90;;;;;;5094217;28;20024;-66
2023/06/14 10:04:05;;;;;;;33.55;11.35;;;21.10;99.90;;;;;;5104238;28;20053;-66
2023/06/14 10:06:41;;;;;;;37.58;10.70;;;21.20;99.90;;;;;;5114208;28;20043;-65
2023/06/14 10:09:09;;;;;;;26.77;10.30;;;21.30;99.90;;;;;;5113505;28;20039;-66
2023/06/14 10:11:40;;;;;;;27.60;9.93;;;21.40;99.90;;;;;;5076337;28;20024;-66
2023/06/14 10:14:06;;;;;;;28.23;10.13;;;21.50;99.90;;;;;;5094516;28;20020;-66
2023/06/14 10:16:55;;;;;;;17.45;10.07;;;21.60;99.90;;;;;;5094446;28;20385;-66
2023/06/14 10:19:34;;;;;;;28.63;10.73;;;21.50;99.90;;;;;;5094089;28;20082;-66
2023/06/14 10:22:06;;;;;;;20.02;10.13;;;21.60;99.90;;;;;;5093406;28;20027;-66
2023/06/14 10:24:41;;;;;;;21.98;11.32;;;21.70;99.90;;;;;;5094139;28;20043;-66
2023/06/14 10:27:11;;;;;;;16.60;9.88;;;21.80;99.90;;;;;;5093024;28;20028;-66
2023/06/14 10:29:52;;;;;;;22.13;9.90;;;21.80;99.90;;;;;;5097130;28;20032;-66
2023/06/14 10:32:19;;;;;;;22.30;9.95;;;22.00;99.90;;;;;;5094030;28;20024;-66
2023/06/14 10:34:45;;;;;;;19.33;9.65;;;21.90;99.90;;;;;;5097067;28;20034;-66
2023/06/14 10:37:13;;;;;;;20.83;9.77;;;22.10;99.90;;;;;;5100793;28;20043;-66
2023/06/14 10:39:48;;;;;;;26.95;10.50;;;22.20;99.90;;;;;;5101008;28;20030;-66
2023/06/14 10:42:14;;;;;;;25.95;10.43;;;22.30;99.90;;;;;;5100416;28;20020;-66
2023/06/14 10:44:55;;;;;;;23.50;9.98;;;22.40;99.90;;;;;;5096194;28;20466;-66
2023/06/14 10:47:32;;;;;;;32.28;11.70;;;22.40;99.90;;;;;;5100423;28;20097;-66
2023/06/14 10:50:06;;;;;;;19.73;9.20;;;22.40;99.90;;;;;;5100324;28;20049;-66
2023/06/14 10:52:39;;;;;;;19.75;11.02;;;22.50;99.90;;;;;;5100164;28;20059;-66
2023/06/14 10:55:10;;;;;;;16.50;8.02;;;22.70;99.90;;;;;;5119490;28;20031;-66
2023/06/14 10:57:57;;;;;;;17.75;6.60;;;22.80;99.90;;;;;;5098635;28;20028;-66
2023/06/14 11:00:26;;;;;;;12.65;5.90;;;22.70;99.90;;;;;;5100531;28;20093;-66
2023/06/14 11:03:29;;;;;;;8.55;4.68;;;22.90;99.90;;;;;;5112051;28;20369;-66
2023/06/14 11:05:57;;;;;;;10.30;4.60;;;23.00;99.90;;;;;;5100261;28;20032;-66
2023/06/14 11:08:51;;;;;;;10.30;4.65;;;23.20;99.90;;;;;;5087761;28;20024;-66
2023/06/14 11:11:18;;;;;;;10.07;4.40;;;23.30;99.90;;;;;;5101843;28;20417;-66
2023/06/14 11:13:51;;;;;;;11.77;4.28;;;23.40;99.90;;;;;;5101008;28;20859;-66
2023/06/14 11:16:24;;;;;;;12.30;4.70;;;23.70;99.90;;;;;;5101282;28;20079;-66
2023/06/14 11:18:50;;;;;;;7.78;4.03;;;24.00;99.90;;;;;;5100479;28;20043;-66
2023/06/14 11:21:21;;;;;;;10.98;5.10;;;24.40;99.90;;;;;;5100116;28;20132;-66
2023/06/14 11:23:54;;;;;;;;;;;24.60;99.50;;;;;;5086354;28;20043;-66
2023/06/14 11:26:30;;;;;;;6.15;4.47;;;24.80;99.50;;;;;;5121715;28;19926;-66
2023/06/14 11:28:58;;;;;;;10.57;4.00;;;25.00;97.70;;;;;;5118916;28;20149;-66
2023/06/14 11:31:26;;;;;;;7.70;4.05;;;24.90;94.60;;;;;;5098011;28;20039;-66
2023/06/14 11:33:58;;;;;;;14.73;5.40;;;24.90;96.40;;;;;;5097756;28;20029;-66
2023/06/14 11:36:30;;;;;;;5.32;3.75;;;25.00;95.30;;;;;;5101653;28;20055;-66
2023/06/14 11:39:06;;;;;;;12.23;5.38;;;24.90;99.90;;;;;;5121036;28;20055;-66
2023/06/14 11:41:34;;;;;;;10.57;4.55;;;24.80;97.20;;;;;;5120999;28;20020;-66
2023/06/14 11:44:02;;;;;;;13.18;6.95;;;24.90;96.40;;;;;;5121130;28;20508;-66
2023/06/14 11:46:28;;;;;;;9.82;4.72;;;24.80;93.70;;;;;;5105408;28;20051;-65
2023/06/14 11:48:54;;;;;;;9.25;4.45;;;24.80;95.20;;;;;;5079238;28;20499;-66
2023/06/14 11:51:20;;;;;;;17.02;6.57;;;25.00;95.90;;;;;;5097883;28;20557;-65
2023/06/14 11:53:46;;;;;;;8.63;4.47;;;25.20;93.10;;;;;;5097659;28;20060;-66
2023/06/14 11:56:13;;;;;;;12.77;5.53;;;25.60;95.30;;;;;;5097829;28;20082;-66
2023/06/14 11:58:42;;;;;;;7.18;3.75;;;25.70;96.90;;;;;;5090949;28;20032;-65
2023/06/14 12:01:08;;;;;;;13.90;4.22;;;25.90;96.20;;;;;;5077631;28;20033;-65
2023/06/14 12:03:35;;;;;;;18.27;8.35;;;25.90;90.30;;;;;;5077256;28;20032;-65
2023/06/14 12:06:08;;;;;;;8.88;4.20;;;26.10;91.90;;;;;;5077256;28;20028;-65
2023/06/14 12:08:39;;;;;;;9.32;4.13;;;26.00;90.40;;;;;;5087586;28;20059;-65
2023/06/14 12:11:13;;;;;;;15.38;4.72;;;26.30;91.80;;;;;;5096888;28;20042;-65
2023/06/14 12:13:43;;;;;;;21.83;6.30;;;26.30;91.40;;;;;;5108642;28;20040;-65
2023/06/14 12:16:10;;;;;;;11.45;3.92;;;26.10;93.80;;;;;;5079667;28;20031;-65
2023/06/14 12:18:39;;;;;;;15.02;4.68;;;25.60;92.20;;;;;;5097434;28;20024;-65
2023/06/14 12:21:06;;;;;;;22.38;6.50;;;25.20;94.50;;;;;;5096244;28;20020;-65
2023/06/14 12:23:50;;;;;;;7.50;4.07;;;25.50;98.40;;;;;;5096693;28;20070;-65
2023/06/14 12:26:27;;;;;;;9.50;4.25;;;26.20;96.30;;;;;;5117202;28;20054;-65
2023/06/14 12:28:53;;;;;;;7.28;3.60;;;25.10;98.10;;;;;;5094825;28;20032;-65
2023/06/14 12:31:22;;;;;;;7.40;4.10;;;24.90;93.40;;;;;;5095774;28;20031;-66
2023/06/14 12:33:51;;;;;;;14.30;5.07;;;25.20;99.90;;;;;;5095035;28;20489;-64
2023/06/14 12:36:25;;;;;;;;;;;24.80;95.20;;;;;;5106377;28;20039;-64
2023/06/14 12:38:53;;;;;;;11.27;4.78;;;25.60;94.30;;;;;;5096489;28;19916;-64
2023/06/14 12:41:24;;;;;;;13.32;6.07;;;25.80;94.70;;;;;;5075295;28;20068;-64